Milano, Texas
Current Conditions -  °F | °C
As of 5:55 PM on Sunday 23 Nov 2014 (Local Time) from KT35 Reporting Station
Clear Clear  
Wind Chill: 73°   Ceiling: Unl
Heat Index: 73°   Visibility: 10mi
Dew Point: 42°   Wind: 8mph
Humidity: 32%   Direction: 250°WSW
Pressure: 29.55"   Gusts: NA
Location:  30.71°N, 96.86°W
Report Text: KT35 232355Z AUTO 25007KT 10SM CLR 23/06 A2955 RMK AO2 T02300056 10270 20230
Loading
Personal Weather Stations






























Interactive Weather Map New forecast layout! Learn more

10-Day Weather Forecast

Advertisements
Track Severe Weather on mobile